sensor_id;sensor_type;location;lat;lon;timestamp;P1;durP1;ratioP1;P2;durP2;ratioP2
55009;SDS011;40903;51.638;7.528;2023-08-20T00:01:23;11.77;;;10.57;;
55009;SDS011;40903;51.638;7.528;2023-08-20T00:03:50;11.93;;;10.23;;
55009;SDS011;40903;51.638;7.528;2023-08-20T00:06:16;10.97;;;9.87;;
55009;SDS011;40903;51.638;7.528;2023-08-20T00:08:42;10.73;;;9.20;;
55009;SDS011;40903;51.638;7.528;2023-08-20T00:11:08;10.10;;;9.20;;
55009;SDS011;40903;51.638;7.528;2023-08-20T00:13:34;12.07;;;10.77;;
55009;SDS011;40903;51.638;7.528;2023-08-20T00:16:00;11.00;;;10.00;;
55009;SDS011;40903;51.638;7.528;2023-08-20T00:18:26;12.33;;;11.13;;
55009;SDS011;40903;51.638;7.528;2023-08-20T00:20:52;11.00;;;10.00;;
55009;SDS011;40903;51.638;7.528;2023-08-20T00:23:19;10.70;;;9.57;;
55009;SDS011;40903;51.638;7.528;2023-08-20T00:25:44;11.03;;;9.93;;
55009;SDS011;40903;51.638;7.528;2023-08-20T00:28:10;10.70;;;9.70;;
55009;SDS011;40903;51.638;7.528;2023-08-20T00:30:35;13.37;;;12.00;;
55009;SDS011;40903;51.638;7.528;2023-08-20T00:33:01;15.70;;;13.73;;
55009;SDS011;40903;51.638;7.528;2023-08-20T00:35:26;15.13;;;12.97;;
55009;SDS011;40903;51.638;7.528;2023-08-20T00:37:51;13.93;;;12.53;;
55009;SDS011;40903;51.638;7.528;2023-08-20T00:40:17;12.20;;;11.00;;
55009;SDS011;40903;51.638;7.528;2023-08-20T00:42:42;11.90;;;10.73;;
55009;SDS011;40903;51.638;7.528;2023-08-20T00:45:08;11.83;;;10.27;;
55009;SDS011;40903;51.638;7.528;2023-08-20T00:47:34;13.20;;;11.30;;
55009;SDS011;40903;51.638;7.528;2023-08-20T00:50:00;12.40;;;11.17;;
55009;SDS011;40903;51.638;7.528;2023-08-20T00:52:26;12.00;;;10.77;;
55009;SDS011;40903;51.638;7.528;2023-08-20T00:54:51;12.73;;;11.27;;
55009;SDS011;40903;51.638;7.528;2023-08-20T00:57:18;11.60;;;10.40;;
55009;SDS011;40903;51.638;7.528;2023-08-20T00:59:44;12.07;;;10.73;;
55009;SDS011;40903;51.638;7.528;2023-08-20T01:02:14;12.93;;;10.33;;
55009;SDS011;40903;51.638;7.528;2023-08-20T01:04:40;12.63;;;11.23;;
55009;SDS011;40903;51.638;7.528;2023-08-20T01:07:27;12.90;;;10.33;;
55009;SDS011;40903;51.638;7.528;2023-08-20T01:12:47;12.00;;;10.60;;
55009;SDS011;40903;51.638;7.528;2023-08-20T01:15:14;12.13;;;10.93;;
55009;SDS011;40903;51.638;7.528;2023-08-20T01:17:40;12.37;;;11.13;;
55009;SDS011;40903;51.638;7.528;2023-08-20T01:20:07;12.23;;;11.03;;
55009;SDS011;40903;51.638;7.528;2023-08-20T01:22:45;11.77;;;10.40;;
55009;SDS011;40903;51.638;7.528;2023-08-20T01:26:01;12.77;;;10.93;;
55009;SDS011;40903;51.638;7.528;2023-08-20T01:30:52;12.27;;;11.07;;
55009;SDS011;40903;51.638;7.528;2023-08-20T01:33:19;12.07;;;10.87;;
55009;SDS011;40903;51.638;7.528;2023-08-20T01:35:45;14.30;;;11.47;;
55009;SDS011;40903;51.638;7.528;2023-08-20T01:38:10;13.13;;;11.73;;
55009;SDS011;40903;51.638;7.528;2023-08-20T01:40:36;12.20;;;11.00;;
55009;SDS011;40903;51.638;7.528;2023-08-20T01:43:01;12.07;;;10.83;;
55009;SDS011;40903;51.638;7.528;2023-08-20T01:45:27;13.50;;;11.43;;
55009;SDS011;40903;51.638;7.528;2023-08-20T01:47:52;13.80;;;11.30;;
55009;SDS011;40903;51.638;7.528;2023-08-20T01:50:18;13.20;;;11.83;;
55009;SDS011;40903;51.638;7.528;2023-08-20T01:52:44;15.67;;;13.80;;
55009;SDS011;40903;51.638;7.528;2023-08-20T01:55:09;17.33;;;12.60;;
55009;SDS011;40903;51.638;7.528;2023-08-20T01:57:36;14.97;;;13.30;;
55009;SDS011;40903;51.638;7.528;2023-08-20T02:00:01;16.03;;;13.53;;
55009;SDS011;40903;51.638;7.528;2023-08-20T02:02:26;13.93;;;12.47;;
55009;SDS011;40903;51.638;7.528;2023-08-20T02:04:52;16.67;;;11.37;;
55009;SDS011;40903;51.638;7.528;2023-08-20T02:07:17;17.77;;;13.70;;
55009;SDS011;40903;51.638;7.528;2023-08-20T02:09:42;13.13;;;11.73;;
55009;SDS011;40903;51.638;7.528;2023-08-20T02:12:08;11.77;;;10.57;;
55009;SDS011;40903;51.638;7.528;2023-08-20T02:14:34;14.17;;;12.60;;
55009;SDS011;40903;51.638;7.528;2023-08-20T02:17:02;13.03;;;11.30;;
55009;SDS011;40903;51.638;7.528;2023-08-20T02:19:28;16.93;;;13.33;;
55009;SDS011;40903;51.638;7.528;2023-08-20T02:21:54;14.50;;;12.67;;
55009;SDS011;40903;51.638;7.528;2023-08-20T02:24:19;13.83;;;12.33;;
55009;SDS011;40903;51.638;7.528;2023-08-20T02:26:44;13.60;;;11.77;;
55009;SDS011;40903;51.638;7.528;2023-08-20T02:29:10;16.67;;;12.93;;
55009;SDS011;40903;51.638;7.528;2023-08-20T02:31:35;13.93;;;12.40;;
55009;SDS011;40903;51.638;7.528;2023-08-20T02:34:01;15.60;;;12.90;;
55009;SDS011;40903;51.638;7.528;2023-08-20T02:36:26;14.53;;;13.00;;
55009;SDS011;40903;51.638;7.528;2023-08-20T02:41:17;16.63;;;12.37;;
55009;SDS011;40903;51.638;7.528;2023-08-20T02:43:43;16.47;;;14.33;;
55009;SDS011;40903;51.638;7.528;2023-08-20T02:46:08;19.57;;;14.67;;
55009;SDS011;40903;51.638;7.528;2023-08-20T02:48:33;16.73;;;14.60;;
55009;SDS011;40903;51.638;7.528;2023-08-20T02:50:59;18.77;;;15.50;;
55009;SDS011;40903;51.638;7.528;2023-08-20T02:53:24;19.67;;;16.97;;
55009;SDS011;40903;51.638;7.528;2023-08-20T02:55:49;17.43;;;15.60;;
55009;SDS011;40903;51.638;7.528;2023-08-20T02:58:15;20.37;;;17.03;;
55009;SDS011;40903;51.638;7.528;2023-08-20T03:00:41;17.70;;;15.23;;
55009;SDS011;40903;51.638;7.528;2023-08-20T03:03:08;16.87;;;14.90;;
55009;SDS011;40903;51.638;7.528;2023-08-20T03:05:34;15.27;;;13.67;;
55009;SDS011;40903;51.638;7.528;2023-08-20T03:08:00;15.47;;;13.83;;
55009;SDS011;40903;51.638;7.528;2023-08-20T03:10:26;20.80;;;16.10;;
55009;SDS011;40903;51.638;7.528;2023-08-20T03:12:52;17.73;;;15.53;;
55009;SDS011;40903;51.638;7.528;2023-08-20T03:15:18;21.50;;;15.60;;
55009;SDS011;40903;51.638;7.528;2023-08-20T03:17:43;19.07;;;15.70;;
55009;SDS011;40903;51.638;7.528;2023-08-20T03:20:09;21.57;;;18.80;;
55009;SDS011;40903;51.638;7.528;2023-08-20T03:22:35;17.20;;;15.40;;
55009;SDS011;40903;51.638;7.528;2023-08-20T03:25:01;20.30;;;17.33;;
55009;SDS011;40903;51.638;7.528;2023-08-20T03:27:27;22.20;;;16.80;;
55009;SDS011;40903;51.638;7.528;2023-08-20T03:29:52;21.13;;;16.10;;
55009;SDS011;40903;51.638;7.528;2023-08-20T03:32:18;20.53;;;15.93;;
55009;SDS011;40903;51.638;7.528;2023-08-20T03:34:43;17.97;;;16.07;;
55009;SDS011;40903;51.638;7.528;2023-08-20T03:37:09;17.80;;;15.10;;
55009;SDS011;40903;51.638;7.528;2023-08-20T03:39:34;17.50;;;15.73;;
55009;SDS011;40903;51.638;7.528;2023-08-20T03:41:59;16.77;;;14.20;;
55009;SDS011;40903;51.638;7.528;2023-08-20T03:44:25;19.43;;;15.30;;
55009;SDS011;40903;51.638;7.528;2023-08-20T03:46:51;16.90;;;14.47;;
55009;SDS011;40903;51.638;7.528;2023-08-20T03:49:16;21.33;;;18.43;;
55009;SDS011;40903;51.638;7.528;2023-08-20T03:51:41;18.97;;;16.97;;
55009;SDS011;40903;51.638;7.528;2023-08-20T03:54:08;24.27;;;20.30;;
55009;SDS011;40903;51.638;7.528;2023-08-20T03:56:34;27.20;;;20.90;;
55009;SDS011;40903;51.638;7.528;2023-08-20T03:58:59;24.27;;;19.33;;
55009;SDS011;40903;51.638;7.528;2023-08-20T04:01:24;23.33;;;19.47;;
55009;SDS011;40903;51.638;7.528;2023-08-20T04:03:50;24.60;;;20.13;;
55009;SDS011;40903;51.638;7.528;2023-08-20T04:06:15;23.60;;;20.47;;
55009;SDS011;40903;51.638;7.528;2023-08-20T04:08:40;36.17;;;27.23;;
55009;SDS011;40903;51.638;7.528;2023-08-20T04:11:06;37.93;;;29.27;;
55009;SDS011;40903;51.638;7.528;2023-08-20T04:13:32;34.37;;;26.37;;
55009;SDS011;40903;51.638;7.528;2023-08-20T04:15:57;35.20;;;28.07;;
55009;SDS011;40903;51.638;7.528;2023-08-20T04:18:23;38.53;;;29.50;;
55009;SDS011;40903;51.638;7.528;2023-08-20T04:20:50;39.80;;;28.57;;
55009;SDS011;40903;51.638;7.528;2023-08-20T04:23:16;47.20;;;32.27;;
55009;SDS011;40903;51.638;7.528;2023-08-20T04:25:41;60.40;;;38.83;;
55009;SDS011;40903;51.638;7.528;2023-08-20T04:28:07;55.90;;;34.93;;
55009;SDS011;40903;51.638;7.528;2023-08-20T04:30:34;52.17;;;35.63;;
55009;SDS011;40903;51.638;7.528;2023-08-20T04:32:59;50.93;;;34.27;;
55009;SDS011;40903;51.638;7.528;2023-08-20T04:35:25;45.90;;;33.17;;
55009;SDS011;40903;51.638;7.528;2023-08-20T04:37:50;40.60;;;28.80;;
55009;SDS011;40903;51.638;7.528;2023-08-20T04:40:16;55.70;;;37.43;;
55009;SDS011;40903;51.638;7.528;2023-08-20T04:42:41;48.90;;;32.10;;
55009;SDS011;40903;51.638;7.528;2023-08-20T04:45:07;42.00;;;30.07;;
55009;SDS011;40903;51.638;7.528;2023-08-20T04:47:32;42.80;;;29.13;;
55009;SDS011;40903;51.638;7.528;2023-08-20T04:49:58;45.03;;;31.13;;
55009;SDS011;40903;51.638;7.528;2023-08-20T04:52:23;44.60;;;31.13;;
55009;SDS011;40903;51.638;7.528;2023-08-20T04:54:49;50.23;;;36.27;;
55009;SDS011;40903;51.638;7.528;2023-08-20T04:57:14;47.57;;;32.80;;
55009;SDS011;40903;51.638;7.528;2023-08-20T04:59:39;45.70;;;31.63;;
55009;SDS011;40903;51.638;7.528;2023-08-20T05:02:08;39.20;;;28.93;;
55009;SDS011;40903;51.638;7.528;2023-08-20T05:04:33;46.40;;;33.77;;
55009;SDS011;40903;51.638;7.528;2023-08-20T05:06:58;47.83;;;32.90;;
55009;SDS011;40903;51.638;7.528;2023-08-20T05:09:24;48.10;;;33.47;;
55009;SDS011;40903;51.638;7.528;2023-08-20T05:11:49;47.33;;;32.37;;
55009;SDS011;40903;51.638;7.528;2023-08-20T05:14:14;41.37;;;30.20;;
55009;SDS011;40903;51.638;7.528;2023-08-20T05:16:40;53.50;;;37.17;;
55009;SDS011;40903;51.638;7.528;2023-08-20T05:19:05;39.43;;;29.00;;
55009;SDS011;40903;51.638;7.528;2023-08-20T05:21:30;44.33;;;32.53;;
55009;SDS011;40903;51.638;7.528;2023-08-20T05:23:56;44.17;;;32.40;;
55009;SDS011;40903;51.638;7.528;2023-08-20T05:26:21;49.23;;;31.80;;
55009;SDS011;40903;51.638;7.528;2023-08-20T05:28:47;41.77;;;29.50;;
55009;SDS011;40903;51.638;7.528;2023-08-20T05:31:12;45.63;;;32.33;;
55009;SDS011;40903;51.638;7.528;2023-08-20T05:33:38;40.67;;;30.50;;
55009;SDS011;40903;51.638;7.528;2023-08-20T05:36:03;38.53;;;29.40;;
55009;SDS011;40903;51.638;7.528;2023-08-20T05:38:28;49.17;;;34.53;;
55009;SDS011;40903;51.638;7.528;2023-08-20T05:40:54;42.37;;;31.40;;
55009;SDS011;40903;51.638;7.528;2023-08-20T05:43:19;48.37;;;33.87;;
55009;SDS011;40903;51.638;7.528;2023-08-20T05:45:44;43.57;;;32.43;;
55009;SDS011;40903;51.638;7.528;2023-08-20T05:48:10;36.47;;;27.53;;
55009;SDS011;40903;51.638;7.528;2023-08-20T05:50:35;43.87;;;34.60;;
55009;SDS011;40903;51.638;7.528;2023-08-20T05:53:00;52.23;;;37.10;;
55009;SDS011;40903;51.638;7.528;2023-08-20T05:55:26;43.10;;;31.90;;
55009;SDS011;40903;51.638;7.528;2023-08-20T05:57:51;46.57;;;33.77;;
55009;SDS011;40903;51.638;7.528;2023-08-20T06:00:17;48.80;;;34.83;;
55009;SDS011;40903;51.638;7.528;2023-08-20T06:02:43;56.13;;;39.03;;
55009;SDS011;40903;51.638;7.528;2023-08-20T06:05:08;54.57;;;39.10;;
55009;SDS011;40903;51.638;7.528;2023-08-20T06:07:34;43.80;;;33.67;;
55009;SDS011;40903;51.638;7.528;2023-08-20T06:10:00;44.80;;;32.97;;
55009;SDS011;40903;51.638;7.528;2023-08-20T06:12:25;42.27;;;31.60;;
55009;SDS011;40903;51.638;7.528;2023-08-20T06:14:50;47.83;;;34.87;;
55009;SDS011;40903;51.638;7.528;2023-08-20T06:17:16;42.87;;;33.77;;
55009;SDS011;40903;51.638;7.528;2023-08-20T06:19:42;54.30;;;39.90;;
55009;SDS011;40903;51.638;7.528;2023-08-20T06:22:07;61.50;;;44.20;;
55009;SDS011;40903;51.638;7.528;2023-08-20T06:24:32;59.17;;;42.07;;
55009;SDS011;40903;51.638;7.528;2023-08-20T06:26:58;65.63;;;45.03;;
55009;SDS011;40903;51.638;7.528;2023-08-20T06:29:23;55.83;;;39.30;;
55009;SDS011;40903;51.638;7.528;2023-08-20T06:31:49;46.80;;;37.20;;
55009;SDS011;40903;51.638;7.528;2023-08-20T06:34:15;55.70;;;42.17;;
55009;SDS011;40903;51.638;7.528;2023-08-20T06:36:41;49.93;;;35.80;;
55009;SDS011;40903;51.638;7.528;2023-08-20T06:39:06;53.10;;;37.53;;
55009;SDS011;40903;51.638;7.528;2023-08-20T06:41:31;52.90;;;39.63;;
55009;SDS011;40903;51.638;7.528;2023-08-20T06:43:57;48.77;;;36.17;;
55009;SDS011;40903;51.638;7.528;2023-08-20T06:46:22;56.57;;;42.73;;
55009;SDS011;40903;51.638;7.528;2023-08-20T06:48:47;60.67;;;43.47;;
55009;SDS011;40903;51.638;7.528;2023-08-20T06:51:13;51.20;;;39.40;;
55009;SDS011;40903;51.638;7.528;2023-08-20T07:05:57;52.10;;;40.70;;
55009;SDS011;40903;51.638;7.528;2023-08-20T07:08:23;55.93;;;42.97;;
55009;SDS011;40903;51.638;7.528;2023-08-20T07:10:48;57.47;;;42.53;;
55009;SDS011;40903;51.638;7.528;2023-08-20T07:13:13;47.90;;;38.60;;
55009;SDS011;40903;51.638;7.528;2023-08-20T07:15:39;50.57;;;40.77;;
55009;SDS011;40903;51.638;7.528;2023-08-20T07:18:04;44.70;;;37.17;;
55009;SDS011;40903;51.638;7.528;2023-08-20T07:20:30;48.83;;;39.00;;
55009;SDS011;40903;51.638;7.528;2023-08-20T07:22:55;45.37;;;37.07;;
55009;SDS011;40903;51.638;7.528;2023-08-20T07:25:20;45.57;;;36.37;;
55009;SDS011;40903;51.638;7.528;2023-08-20T07:27:46;46.00;;;36.70;;
55009;SDS011;40903;51.638;7.528;2023-08-20T07:30:12;44.93;;;36.83;;
55009;SDS011;40903;51.638;7.528;2023-08-20T07:32:37;48.10;;;36.87;;
55009;SDS011;40903;51.638;7.528;2023-08-20T07:35:03;44.57;;;36.20;;
55009;SDS011;40903;51.638;7.528;2023-08-20T07:37:28;39.90;;;32.50;;
55009;SDS011;40903;51.638;7.528;2023-08-20T07:39:54;46.17;;;37.10;;
55009;SDS011;40903;51.638;7.528;2023-08-20T07:42:19;43.77;;;35.07;;
55009;SDS011;40903;51.638;7.528;2023-08-20T07:44:44;37.80;;;31.47;;
55009;SDS011;40903;51.638;7.528;2023-08-20T07:47:10;37.47;;;30.80;;
55009;SDS011;40903;51.638;7.528;2023-08-20T07:49:35;38.73;;;33.23;;
55009;SDS011;40903;51.638;7.528;2023-08-20T07:52:01;45.07;;;35.67;;
55009;SDS011;40903;51.638;7.528;2023-08-20T07:54:27;39.80;;;33.53;;
55009;SDS011;40903;51.638;7.528;2023-08-20T07:56:53;38.60;;;32.40;;
55009;SDS011;40903;51.638;7.528;2023-08-20T07:59:19;34.50;;;30.03;;
55009;SDS011;40903;51.638;7.528;2023-08-20T08:01:44;38.80;;;32.33;;
55009;SDS011;40903;51.638;7.528;2023-08-20T08:04:09;38.93;;;33.03;;
55009;SDS011;40903;51.638;7.528;2023-08-20T08:06:35;37.50;;;30.97;;
55009;SDS011;40903;51.638;7.528;2023-08-20T08:09:20;36.30;;;30.90;;
55009;SDS011;40903;51.638;7.528;2023-08-20T08:11:46;39.57;;;32.30;;
55009;SDS011;40903;51.638;7.528;2023-08-20T08:14:11;34.37;;;30.57;;
55009;SDS011;40903;51.638;7.528;2023-08-20T08:16:37;30.90;;;27.70;;
55009;SDS011;40903;51.638;7.528;2023-08-20T08:19:02;30.67;;;27.10;;
55009;SDS011;40903;51.638;7.528;2023-08-20T08:21:27;34.10;;;29.53;;
55009;SDS011;40903;51.638;7.528;2023-08-20T08:23:53;30.97;;;27.63;;
55009;SDS011;40903;51.638;7.528;2023-08-20T08:26:18;32.40;;;28.90;;
55009;SDS011;40903;51.638;7.528;2023-08-20T08:28:44;31.60;;;27.70;;
55009;SDS011;40903;51.638;7.528;2023-08-20T08:31:09;28.77;;;24.63;;
55009;SDS011;40903;51.638;7.528;2023-08-20T08:33:34;34.50;;;30.53;;
55009;SDS011;40903;51.638;7.528;2023-08-20T08:36:00;31.07;;;27.57;;
55009;SDS011;40903;51.638;7.528;2023-08-20T08:38:25;34.10;;;30.40;;
55009;SDS011;40903;51.638;7.528;2023-08-20T08:40:50;29.50;;;26.47;;
55009;SDS011;40903;51.638;7.528;2023-08-20T08:45:45;29.20;;;26.15;;
55009;SDS011;40903;51.638;7.528;2023-08-20T08:48:12;26.80;;;23.93;;
55009;SDS011;40903;51.638;7.528;2023-08-20T08:50:38;31.07;;;27.67;;
55009;SDS011;40903;51.638;7.528;2023-08-20T08:53:04;27.37;;;24.47;;
55009;SDS011;40903;51.638;7.528;2023-08-20T08:55:31;28.33;;;25.33;;
55009;SDS011;40903;51.638;7.528;2023-08-20T08:57:56;30.37;;;26.93;;
55009;SDS011;40903;51.638;7.528;2023-08-20T09:00:22;27.87;;;24.60;;
55009;SDS011;40903;51.638;7.528;2023-08-20T09:02:47;26.60;;;23.73;;
55009;SDS011;40903;51.638;7.528;2023-08-20T09:05:13;22.30;;;20.10;;
55009;SDS011;40903;51.638;7.528;2023-08-20T09:07:42;28.07;;;25.03;;
55009;SDS011;40903;51.638;7.528;2023-08-20T09:10:09;23.87;;;21.50;;
55009;SDS011;40903;51.638;7.528;2023-08-20T09:12:35;25.90;;;23.20;;
55009;SDS011;40903;51.638;7.528;2023-08-20T09:15:01;25.23;;;22.63;;
55009;SDS011;40903;51.638;7.528;2023-08-20T09:19:54;19.80;;;17.80;;
55009;SDS011;40903;51.638;7.528;2023-08-20T09:22:23;28.03;;;25.17;;
55009;SDS011;40903;51.638;7.528;2023-08-20T09:24:53;22.70;;;20.10;;
55009;SDS011;40903;51.638;7.528;2023-08-20T09:27:20;20.93;;;18.87;;
55009;SDS011;40903;51.638;7.528;2023-08-20T09:29:47;21.23;;;19.07;;
55009;SDS011;40903;51.638;7.528;2023-08-20T09:32:17;20.77;;;18.77;;
55009;SDS011;40903;51.638;7.528;2023-08-20T09:34:46;20.40;;;18.40;;
55009;SDS011;40903;51.638;7.528;2023-08-20T09:37:13;16.83;;;15.17;;
55009;SDS011;40903;51.638;7.528;2023-08-20T09:39:39;14.33;;;12.87;;
55009;SDS011;40903;51.638;7.528;2023-08-20T09:42:05;15.80;;;14.30;;
55009;SDS011;40903;51.638;7.528;2023-08-20T09:44:35;18.83;;;17.03;;
55009;SDS011;40903;51.638;7.528;2023-08-20T09:47:02;16.00;;;14.43;;
55009;SDS011;40903;51.638;7.528;2023-08-20T09:49:32;16.73;;;15.13;;
55009;SDS011;40903;51.638;7.528;2023-08-20T09:52:04;14.53;;;13.23;;
55009;SDS011;40903;51.638;7.528;2023-08-20T09:54:47;15.97;;;14.40;;
55009;SDS011;40903;51.638;7.528;2023-08-20T09:57:20;14.13;;;12.73;;
55009;SDS011;40903;51.638;7.528;2023-08-20T09:59:52;16.70;;;14.93;;
55009;SDS011;40903;51.638;7.528;2023-08-20T10:02:18;14.33;;;12.80;;
55009;SDS011;40903;51.638;7.528;2023-08-20T10:04:44;21.40;;;19.20;;
55009;SDS011;40903;51.638;7.528;2023-08-20T10:07:10;14.17;;;12.00;;
55009;SDS011;40903;51.638;7.528;2023-08-20T10:09:37;9.47;;;8.00;;
55009;SDS011;40903;51.638;7.528;2023-08-20T10:12:04;9.10;;;5.37;;
55009;SDS011;40903;51.638;7.528;2023-08-20T10:14:30;5.33;;;3.40;;
55009;SDS011;40903;51.638;7.528;2023-08-20T10:16:55;6.33;;;5.73;;
55009;SDS011;40903;51.638;7.528;2023-08-20T10:19:21;8.97;;;7.70;;
55009;SDS011;40903;51.638;7.528;2023-08-20T10:21:48;9.70;;;7.10;;
55009;SDS011;40903;51.638;7.528;2023-08-20T10:24:17;13.83;;;12.40;;
55009;SDS011;40903;51.638;7.528;2023-08-20T10:26:47;14.93;;;13.53;;
55009;SDS011;40903;51.638;7.528;2023-08-20T10:32:10;21.27;;;18.97;;
55009;SDS011;40903;51.638;7.528;2023-08-20T10:34:37;22.00;;;19.23;;
55009;SDS011;40903;51.638;7.528;2023-08-20T10:37:12;11.80;;;10.60;;
55009;SDS011;40903;51.638;7.528;2023-08-20T10:39:38;13.60;;;12.17;;
55009;SDS011;40903;51.638;7.528;2023-08-20T10:42:26;11.10;;;9.73;;
55009;SDS011;40903;51.638;7.528;2023-08-20T10:44:59;9.87;;;8.13;;
55009;SDS011;40903;51.638;7.528;2023-08-20T10:47:25;7.70;;;6.90;;
55009;SDS011;40903;51.638;7.528;2023-08-20T10:49:59;9.80;;;8.17;;
55009;SDS011;40903;51.638;7.528;2023-08-20T10:52:25;8.90;;;8.00;;
55009;SDS011;40903;51.638;7.528;2023-08-20T10:54:50;10.87;;;9.07;;
55009;SDS011;40903;51.638;7.528;2023-08-20T10:57:17;13.07;;;11.17;;
55009;SDS011;40903;51.638;7.528;2023-08-20T10:59:47;11.20;;;10.00;;
55009;SDS011;40903;51.638;7.528;2023-08-20T11:02:22;13.50;;;11.67;;
55009;SDS011;40903;51.638;7.528;2023-08-20T11:04:48;9.87;;;8.73;;
55009;SDS011;40903;51.638;7.528;2023-08-20T11:07:14;11.20;;;9.83;;
55009;SDS011;40903;51.638;7.528;2023-08-20T11:09:42;8.97;;;8.00;;
55009;SDS011;40903;51.638;7.528;2023-08-20T11:12:09;9.63;;;8.57;;
55009;SDS011;40903;51.638;7.528;2023-08-20T11:14:35;8.80;;;7.73;;
55009;SDS011;40903;51.638;7.528;2023-08-20T11:17:01;6.90;;;6.20;;
55009;SDS011;40903;51.638;7.528;2023-08-20T11:19:27;7.03;;;6.33;;
55009;SDS011;40903;51.638;7.528;2023-08-20T11:21:54;7.40;;;6.70;;
55009;SDS011;40903;51.638;7.528;2023-08-20T11:24:19;6.93;;;6.33;;
55009;SDS011;40903;51.638;7.528;2023-08-20T11:26:45;6.27;;;5.60;;
55009;SDS011;40903;51.638;7.528;2023-08-20T11:29:11;7.27;;;6.20;;
55009;SDS011;40903;51.638;7.528;2023-08-20T11:31:48;7.30;;;6.13;;
55009;SDS011;40903;51.638;7.528;2023-08-20T11:34:14;7.53;;;6.83;;
55009;SDS011;40903;51.638;7.528;2023-08-20T11:36:39;7.63;;;6.87;;
55009;SDS011;40903;51.638;7.528;2023-08-20T11:39:05;6.90;;;6.20;;
55009;SDS011;40903;51.638;7.528;2023-08-20T11:41:33;7.53;;;6.77;;
55009;SDS011;40903;51.638;7.528;2023-08-20T11:44:01;7.00;;;6.40;;
55009;SDS011;40903;51.638;7.528;2023-08-20T11:46:26;11.10;;;9.50;;
55009;SDS011;40903;51.638;7.528;2023-08-20T11:48:58;11.40;;;9.93;;
55009;SDS011;40903;51.638;7.528;2023-08-20T11:51:23;9.80;;;8.87;;
55009;SDS011;40903;51.638;7.528;2023-08-20T11:53:49;9.90;;;9.00;;
55009;SDS011;40903;51.638;7.528;2023-08-20T11:56:14;10.90;;;9.80;;
55009;SDS011;40903;51.638;7.528;2023-08-20T11:58:40;10.17;;;8.93;;
55009;SDS011;40903;51.638;7.528;2023-08-20T12:01:07;17.60;;;10.00;;
55009;SDS011;40903;51.638;7.528;2023-08-20T12:03:33;11.53;;;10.10;;
55009;SDS011;40903;51.638;7.528;2023-08-20T12:05:58;10.53;;;9.43;;
55009;SDS011;40903;51.638;7.528;2023-08-20T12:08:23;11.47;;;9.10;;
55009;SDS011;40903;51.638;7.528;2023-08-20T12:10:49;9.60;;;8.70;;
55009;SDS011;40903;51.638;7.528;2023-08-20T12:13:14;9.90;;;9.00;;
55009;SDS011;40903;51.638;7.528;2023-08-20T12:15:39;9.40;;;8.53;;
55009;SDS011;40903;51.638;7.528;2023-08-20T12:18:05;9.90;;;8.90;;
55009;SDS011;40903;51.638;7.528;2023-08-20T12:20:34;9.70;;;8.80;;
55009;SDS011;40903;51.638;7.528;2023-08-20T12:23:02;10.33;;;9.33;;
55009;SDS011;40903;51.638;7.528;2023-08-20T12:25:33;9.93;;;8.93;;
55009;SDS011;40903;51.638;7.528;2023-08-20T12:28:01;10.33;;;9.43;;
55009;SDS011;40903;51.638;7.528;2023-08-20T12:30:29;10.90;;;9.90;;
55009;SDS011;40903;51.638;7.528;2023-08-20T12:32:54;11.07;;;9.97;;
55009;SDS011;40903;51.638;7.528;2023-08-20T12:35:20;11.10;;;10.10;;
55009;SDS011;40903;51.638;7.528;2023-08-20T12:37:46;10.90;;;9.80;;
55009;SDS011;40903;51.638;7.528;2023-08-20T12:40:11;12.43;;;11.33;;
55009;SDS011;40903;51.638;7.528;2023-08-20T12:42:37;11.90;;;10.73;;
55009;SDS011;40903;51.638;7.528;2023-08-20T12:45:06;12.33;;;11.23;;
55009;SDS011;40903;51.638;7.528;2023-08-20T12:47:32;11.90;;;10.77;;
55009;SDS011;40903;51.638;7.528;2023-08-20T12:49:58;12.20;;;11.20;;
55009;SDS011;40903;51.638;7.528;2023-08-20T12:52:24;11.37;;;10.37;;
55009;SDS011;40903;51.638;7.528;2023-08-20T12:54:49;11.67;;;10.47;;
55009;SDS011;40903;51.638;7.528;2023-08-20T12:57:15;12.27;;;11.17;;
55009;SDS011;40903;51.638;7.528;2023-08-20T12:59:40;11.00;;;10.03;;
55009;SDS011;40903;51.638;7.528;2023-08-20T13:02:06;11.80;;;10.60;;
55009;SDS011;40903;51.638;7.528;2023-08-20T13:04:31;11.93;;;10.73;;
55009;SDS011;40903;51.638;7.528;2023-08-20T13:06:57;11.33;;;10.37;;
55009;SDS011;40903;51.638;7.528;2023-08-20T13:09:23;11.37;;;10.23;;
55009;SDS011;40903;51.638;7.528;2023-08-20T13:11:48;10.27;;;9.27;;
55009;SDS011;40903;51.638;7.528;2023-08-20T13:14:18;10.27;;;9.07;;
55009;SDS011;40903;51.638;7.528;2023-08-20T13:16:43;9.57;;;8.63;;
55009;SDS011;40903;51.638;7.528;2023-08-20T13:19:09;9.40;;;8.50;;
55009;SDS011;40903;51.638;7.528;2023-08-20T13:21:35;9.70;;;8.73;;
55009;SDS011;40903;51.638;7.528;2023-08-20T13:24:00;10.83;;;9.83;;
55009;SDS011;40903;51.638;7.528;2023-08-20T13:26:25;10.00;;;9.10;;
55009;SDS011;40903;51.638;7.528;2023-08-20T13:28:52;9.37;;;8.47;;
55009;SDS011;40903;51.638;7.528;2023-08-20T13:31:17;8.57;;;7.93;;
55009;SDS011;40903;51.638;7.528;2023-08-20T13:33:42;9.33;;;8.53;;
55009;SDS011;40903;51.638;7.528;2023-08-20T13:36:08;9.93;;;7.83;;
55009;SDS011;40903;51.638;7.528;2023-08-20T13:38:33;8.13;;;7.50;;
55009;SDS011;40903;51.638;7.528;2023-08-20T13:40:59;8.37;;;7.50;;
55009;SDS011;40903;51.638;7.528;2023-08-20T13:43:25;8.60;;;7.73;;
55009;SDS011;40903;51.638;7.528;2023-08-20T13:45:50;8.03;;;7.43;;
55009;SDS011;40903;51.638;7.528;2023-08-20T13:48:16;9.07;;;8.20;;
55009;SDS011;40903;51.638;7.528;2023-08-20T13:50:41;8.23;;;7.53;;
55009;SDS011;40903;51.638;7.528;2023-08-20T13:53:07;8.73;;;7.93;;
55009;SDS011;40903;51.638;7.528;2023-08-20T13:55:32;8.33;;;7.73;;
55009;SDS011;40903;51.638;7.528;2023-08-20T13:57:58;9.10;;;8.40;;
55009;SDS011;40903;51.638;7.528;2023-08-20T14:00:23;8.47;;;7.77;;
55009;SDS011;40903;51.638;7.528;2023-08-20T14:02:49;8.50;;;7.80;;
55009;SDS011;40903;51.638;7.528;2023-08-20T14:05:14;8.87;;;8.10;;
55009;SDS011;40903;51.638;7.528;2023-08-20T14:07:40;9.77;;;8.87;;
55009;SDS011;40903;51.638;7.528;2023-08-20T14:10:06;9.93;;;9.07;;
55009;SDS011;40903;51.638;7.528;2023-08-20T14:12:33;9.30;;;8.40;;
55009;SDS011;40903;51.638;7.528;2023-08-20T14:14:59;8.07;;;7.37;;
55009;SDS011;40903;51.638;7.528;2023-08-20T14:17:24;8.13;;;7.43;;
55009;SDS011;40903;51.638;7.528;2023-08-20T14:19:50;8.43;;;7.73;;
55009;SDS011;40903;51.638;7.528;2023-08-20T14:22:15;7.60;;;7.07;;
55009;SDS011;40903;51.638;7.528;2023-08-20T14:24:40;7.63;;;7.13;;
55009;SDS011;40903;51.638;7.528;2023-08-20T14:27:06;7.90;;;7.23;;
55009;SDS011;40903;51.638;7.528;2023-08-20T14:29:32;8.20;;;7.50;;
55009;SDS011;40903;51.638;7.528;2023-08-20T14:31:58;8.90;;;7.57;;
55009;SDS011;40903;51.638;7.528;2023-08-20T14:34:23;7.73;;;6.90;;
55009;SDS011;40903;51.638;7.528;2023-08-20T14:36:48;8.27;;;7.47;;
55009;SDS011;40903;51.638;7.528;2023-08-20T14:39:14;8.70;;;7.90;;
55009;SDS011;40903;51.638;7.528;2023-08-20T14:41:39;9.13;;;8.33;;
55009;SDS011;40903;51.638;7.528;2023-08-20T14:44:04;8.93;;;8.27;;
55009;SDS011;40903;51.638;7.528;2023-08-20T14:46:30;8.50;;;7.70;;
55009;SDS011;40903;51.638;7.528;2023-08-20T14:48:55;8.50;;;7.70;;
55009;SDS011;40903;51.638;7.528;2023-08-20T14:51:21;9.07;;;8.17;;